Time;durP1;ratioP1;P1;durP2;ratioP2;P2;SDS_P1;SDS_P2;PMS_P1;PMS_P2;Temp;Humidity;BMP_temperature;BMP_pressure;BME280_temperature;BME280_humidity;BME280_pressure;Samples;Min_cycle;Max_cycle;Signal;HPM_P1;HPM_P2
2022/04/09 00:00:00;;;;;;;12.5;5.5;;;;;;;4.6;100.0;100130;;;;
2022/04/09 00:01:00;;;;;;;12.5;5.5;;;;;;;4.6;100.0;100130;;;;
2022/04/09 00:02:00;;;;;;;12.5;5.5;;;;;;;4.6;100.0;100130;;;;
2022/04/09 00:03:00;;;;;;;12.5;5.5;;;;;;;4.7;100.0;100130;;;;
2022/04/09 00:04:00;;;;;;;12.5;5.5;;;;;;;4.7;100.0;100130;;;;
2022/04/09 00:05:00;;;;;;;12.5;5.5;;;;;;;4.7;100.0;100140;;;;
2022/04/09 00:06:02;;;;;;;12.5;5.5;;;;;;;4.7;100.0;100140;;;;
2022/04/09 00:07:00;;;;;;;12.5;5.5;;;;;;;4.7;100.0;100140;;;;
2022/04/09 00:08:00;;;;;;;12.5;5.5;;;;;;;4.7;100.0;100140;;;;
2022/04/09 00:09:00;;;;;;;12.5;5.5;;;;;;;4.6;100.0;100140;;;;
2022/04/09 00:10:00;;;;;;;12.5;5.5;;;;;;;4.6;100.0;100140;;;;
2022/04/09 00:11:00;;;;;;;12.5;5.5;;;;;;;4.6;100.0;100150;;;;
2022/04/09 00:12:00;;;;;;;12.5;5.5;;;;;;;4.6;100.0;100150;;;;
2022/04/09 00:13:00;;;;;;;12.5;5.5;;;;;;;4.6;100.0;100160;;;;
2022/04/09 00:14:00;;;;;;;11.5;5.2;;;;;;;4.6;100.0;100160;;;;
2022/04/09 00:15:00;;;;;;;11.5;5.2;;;;;;;4.6;100.0;100170;;;;
2022/04/09 00:16:00;;;;;;;11.5;5.2;;;;;;;4.6;100.0;100170;;;;
2022/04/09 00:17:00;;;;;;;11.5;5.2;;;;;;;4.6;100.0;100160;;;;
2022/04/09 00:18:00;;;;;;;11.5;5.2;;;;;;;4.6;100.0;100160;;;;
2022/04/09 00:19:00;;;;;;;11.5;5.2;;;;;;;4.7;100.0;100160;;;;
2022/04/09 00:20:00;;;;;;;11.5;5.2;;;;;;;4.7;100.0;100160;;;;
2022/04/09 00:21:00;;;;;;;11.5;5.2;;;;;;;4.7;100.0;100160;;;;
2022/04/09 00:22:00;;;;;;;11.5;5.2;;;;;;;4.7;100.0;100160;;;;
2022/04/09 00:23:00;;;;;;;11.5;5.2;;;;;;;4.7;100.0;100170;;;;
2022/04/09 00:24:00;;;;;;;11.5;5.2;;;;;;;4.7;100.0;100170;;;;
2022/04/09 00:25:00;;;;;;;11.5;5.2;;;;;;;4.7;100.0;100170;;;;
2022/04/09 00:26:00;;;;;;;11.5;5.2;;;;;;;4.7;100.0;100170;;;;
2022/04/09 00:27:00;;;;;;;11.5;5.2;;;;;;;4.7;100.0;100180;;;;
2022/04/09 00:28:00;;;;;;;11.5;5.2;;;;;;;4.7;100.0;100180;;;;
2022/04/09 00:29:00;;;;;;;11.5;5.2;;;;;;;4.6;100.0;100180;;;;
2022/04/09 00:30:00;;;;;;;11.5;5.2;;;;;;;4.6;100.0;100180;;;;
2022/04/09 00:31:00;;;;;;;11.5;5.2;;;;;;;4.7;100.0;100180;;;;
2022/04/09 00:32:00;;;;;;;11.5;5.2;;;;;;;4.7;100.0;100180;;;;
2022/04/09 00:33:00;;;;;;;11.5;5.2;;;;;;;4.6;100.0;100190;;;;
2022/04/09 00:34:00;;;;;;;13.2;4.9;;;;;;;4.6;100.0;100190;;;;
2022/04/09 00:35:00;;;;;;;13.2;4.9;;;;;;;4.6;100.0;100190;;;;
2022/04/09 00:36:00;;;;;;;13.2;4.9;;;;;;;4.6;100.0;100190;;;;
2022/04/09 00:37:00;;;;;;;13.2;4.9;;;;;;;4.6;100.0;100190;;;;
2022/04/09 00:38:00;;;;;;;13.2;4.9;;;;;;;4.6;100.0;100190;;;;
2022/04/09 00:39:00;;;;;;;13.2;4.9;;;;;;;4.7;100.0;100200;;;;
2022/04/09 00:40:00;;;;;;;13.2;4.9;;;;;;;4.7;100.0;100200;;;;
2022/04/09 00:41:00;;;;;;;13.2;4.9;;;;;;;4.6;100.0;100200;;;;
2022/04/09 00:42:00;;;;;;;13.2;4.9;;;;;;;4.6;100.0;100200;;;;
2022/04/09 00:43:00;;;;;;;13.2;4.9;;;;;;;4.6;100.0;100200;;;;
2022/04/09 00:44:00;;;;;;;13.2;4.9;;;;;;;4.6;100.0;100200;;;;
2022/04/09 00:45:00;;;;;;;13.2;4.9;;;;;;;4.6;100.0;100210;;;;
2022/04/09 00:46:00;;;;;;;13.2;4.9;;;;;;;4.6;100.0;100210;;;;
2022/04/09 00:47:00;;;;;;;13.2;4.9;;;;;;;4.6;100.0;100200;;;;
2022/04/09 00:48:00;;;;;;;13.2;4.9;;;;;;;4.6;100.0;100200;;;;
2022/04/09 00:49:00;;;;;;;13.2;4.9;;;;;;;4.6;100.0;100210;;;;
2022/04/09 00:50:00;;;;;;;13.2;4.9;;;;;;;4.6;100.0;100210;;;;
2022/04/09 00:51:00;;;;;;;13.2;4.9;;;;;;;4.6;100.0;100210;;;;
2022/04/09 00:52:00;;;;;;;13.2;4.9;;;;;;;4.6;100.0;100210;;;;
2022/04/09 00:53:01;;;;;;;13.2;4.9;;;;;;;4.5;100.0;100220;;;;
2022/04/09 00:54:00;;;;;;;14.5;5.2;;;;;;;4.5;100.0;100220;;;;
2022/04/09 00:55:02;;;;;;;14.5;5.2;;;;;;;4.5;100.0;100220;;;;
2022/04/09 00:57:04;;;;;;;14.5;5.2;;;;;;;4.4;100.0;100220;;;;
2022/04/09 00:58:00;;;;;;;14.5;5.2;;;;;;;4.4;100.0;100220;;;;
2022/04/09 00:59:01;;;;;;;14.5;5.2;;;;;;;4.4;100.0;100230;;;;
2022/04/09 01:00:09;;;;;;;14.5;5.2;;;;;;;4.4;100.0;100230;;;;
2022/04/09 01:01:00;;;;;;;14.5;5.2;;;;;;;4.4;100.0;100230;;;;
2022/04/09 01:02:00;;;;;;;14.5;5.2;;;;;;;4.4;100.0;100230;;;;
2022/04/09 01:03:00;;;;;;;14.5;5.2;;;;;;;4.4;100.0;100230;;;;
2022/04/09 01:04:04;;;;;;;14.5;5.2;;;;;;;4.4;100.0;100230;;;;
2022/04/09 01:05:01;;;;;;;14.5;5.2;;;;;;;4.4;100.0;100230;;;;
2022/04/09 01:06:01;;;;;;;14.5;5.2;;;;;;;4.4;100.0;100230;;;;
2022/04/09 01:07:00;;;;;;;14.5;5.2;;;;;;;4.3;100.0;100240;;;;
2022/04/09 01:08:00;;;;;;;14.5;5.2;;;;;;;4.3;100.0;100240;;;;
2022/04/09 01:09:00;;;;;;;14.5;5.2;;;;;;;4.3;100.0;100250;;;;
2022/04/09 01:10:02;;;;;;;14.5;5.2;;;;;;;4.3;100.0;100250;;;;
2022/04/09 01:11:00;;;;;;;14.5;5.2;;;;;;;4.3;100.0;100240;;;;
2022/04/09 01:12:02;;;;;;;14.5;5.2;;;;;;;4.3;100.0;100240;;;;
2022/04/09 01:13:01;;;;;;;14.5;5.2;;;;;;;4.4;100.0;100240;;;;
2022/04/09 01:14:00;;;;;;;14.1;5.2;;;;;;;4.4;100.0;100240;;;;
2022/04/09 01:15:02;;;;;;;14.1;5.2;;;;;;;4.3;100.0;100240;;;;
2022/04/09 01:16:00;;;;;;;14.1;5.2;;;;;;;4.3;100.0;100240;;;;
2022/04/09 01:17:01;;;;;;;14.1;5.2;;;;;;;4.3;100.0;100250;;;;
2022/04/09 01:18:00;;;;;;;14.1;5.2;;;;;;;4.3;100.0;100250;;;;
2022/04/09 01:19:00;;;;;;;14.1;5.2;;;;;;;4.3;100.0;100250;;;;
2022/04/09 01:20:10;;;;;;;14.1;5.2;;;;;;;4.3;100.0;100250;;;;
2022/04/09 01:21:01;;;;;;;14.1;5.2;;;;;;;4.3;100.0;100250;;;;
2022/04/09 01:22:00;;;;;;;14.1;5.2;;;;;;;4.3;100.0;100250;;;;
2022/04/09 01:23:00;;;;;;;14.1;5.2;;;;;;;4.3;100.0;100270;;;;
2022/04/09 01:24:01;;;;;;;14.1;5.2;;;;;;;4.3;100.0;100270;;;;
2022/04/09 01:25:00;;;;;;;14.1;5.2;;;;;;;4.3;100.0;100270;;;;
2022/04/09 01:26:01;;;;;;;14.1;5.2;;;;;;;4.3;100.0;100270;;;;
2022/04/09 01:27:00;;;;;;;14.1;5.2;;;;;;;4.3;100.0;100270;;;;
2022/04/09 01:28:01;;;;;;;14.1;5.2;;;;;;;4.3;100.0;100270;;;;
2022/04/09 01:29:00;;;;;;;14.1;5.2;;;;;;;4.4;100.0;100270;;;;
2022/04/09 01:30:00;;;;;;;14.1;5.2;;;;;;;4.4;100.0;100270;;;;
2022/04/09 01:31:00;;;;;;;14.1;5.2;;;;;;;4.4;100.0;100270;;;;
2022/04/09 01:32:00;;;;;;;14.1;5.2;;;;;;;4.4;100.0;100270;;;;
2022/04/09 01:33:00;;;;;;;11.5;4.6;;;;;;;4.4;100.0;100280;;;;
2022/04/09 01:34:00;;;;;;;11.5;4.6;;;;;;;4.4;100.0;100280;;;;
2022/04/09 01:35:01;;;;;;;11.5;4.6;;;;;;;4.4;100.0;100280;;;;
2022/04/09 01:36:00;;;;;;;11.5;4.6;;;;;;;4.4;100.0;100280;;;;
2022/04/09 01:37:00;;;;;;;11.5;4.6;;;;;;;4.3;100.0;100280;;;;
2022/04/09 01:38:00;;;;;;;11.5;4.6;;;;;;;4.3;100.0;100280;;;;
2022/04/09 01:39:00;;;;;;;11.5;4.6;;;;;;;4.3;100.0;100280;;;;
2022/04/09 01:40:00;;;;;;;11.5;4.6;;;;;;;4.3;100.0;100280;;;;
2022/04/09 01:41:00;;;;;;;11.5;4.6;;;;;;;4.3;100.0;100300;;;;
2022/04/09 01:42:00;;;;;;;11.5;4.6;;;;;;;4.3;100.0;100300;;;;
2022/04/09 01:43:00;;;;;;;11.5;4.6;;;;;;;4.3;100.0;100290;;;;
2022/04/09 01:44:00;;;;;;;11.5;4.6;;;;;;;4.3;100.0;100290;;;;
2022/04/09 01:45:00;;;;;;;11.5;4.6;;;;;;;4.3;100.0;100300;;;;
2022/04/09 01:46:00;;;;;;;11.5;4.6;;;;;;;4.3;100.0;100300;;;;
2022/04/09 01:47:00;;;;;;;11.5;4.6;;;;;;;4.4;100.0;100310;;;;
2022/04/09 01:48:00;;;;;;;11.5;4.6;;;;;;;4.4;100.0;100310;;;;
2022/04/09 01:49:00;;;;;;;11.5;4.6;;;;;;;4.3;100.0;100310;;;;
2022/04/09 01:50:00;;;;;;;11.5;4.6;;;;;;;4.3;100.0;100310;;;;
2022/04/09 01:51:00;;;;;;;11.5;4.6;;;;;;;4.2;100.0;100320;;;;
2022/04/09 01:52:00;;;;;;;11.5;4.6;;;;;;;4.2;100.0;100320;;;;
2022/04/09 01:53:00;;;;;;;10.5;4.5;;;;;;;4.1;100.0;100320;;;;
2022/04/09 01:54:00;;;;;;;10.5;4.5;;;;;;;4.1;100.0;100320;;;;
2022/04/09 01:55:00;;;;;;;10.5;4.5;;;;;;;4.2;100.0;100320;;;;
2022/04/09 01:56:00;;;;;;;10.5;4.5;;;;;;;4.2;100.0;100320;;;;
2022/04/09 01:57:00;;;;;;;10.5;4.5;;;;;;;4.2;100.0;100330;;;;
2022/04/09 01:58:00;;;;;;;10.5;4.5;;;;;;;4.2;100.0;100330;;;;
2022/04/09 01:59:00;;;;;;;10.5;4.5;;;;;;;4.2;100.0;100330;;;;
2022/04/09 02:00:00;;;;;;;10.5;4.5;;;;;;;4.2;100.0;100330;;;;
2022/04/09 02:01:00;;;;;;;10.5;4.5;;;;;;;4.2;100.0;100330;;;;
2022/04/09 02:02:00;;;;;;;10.5;4.5;;;;;;;4.2;100.0;100330;;;;
2022/04/09 02:03:00;;;;;;;10.5;4.5;;;;;;;4.2;100.0;100330;;;;
2022/04/09 02:04:00;;;;;;;10.5;4.5;;;;;;;4.2;100.0;100330;;;;
2022/04/09 02:05:00;;;;;;;10.5;4.5;;;;;;;4.1;100.0;100340;;;;
2022/04/09 02:06:00;;;;;;;10.5;4.5;;;;;;;4.1;100.0;100340;;;;
2022/04/09 02:07:00;;;;;;;10.5;4.5;;;;;;;4.1;100.0;100340;;;;
2022/04/09 02:08:01;;;;;;;10.5;4.5;;;;;;;4.1;100.0;100340;;;;
2022/04/09 02:09:00;;;;;;;10.5;4.5;;;;;;;4.0;100.0;100340;;;;
2022/04/09 02:10:00;;;;;;;10.5;4.5;;;;;;;4.0;100.0;100340;;;;
2022/04/09 02:11:00;;;;;;;10.5;4.5;;;;;;;4.0;100.0;100350;;;;
2022/04/09 02:12:00;;;;;;;10.5;4.5;;;;;;;4.0;100.0;100350;;;;
2022/04/09 02:13:01;;;;;;;12.7;5.1;;;;;;;4.0;100.0;100350;;;;
2022/04/09 02:14:00;;;;;;;12.7;5.1;;;;;;;4.0;100.0;100350;;;;
2022/04/09 02:15:02;;;;;;;12.7;5.1;;;;;;;4.1;100.0;100350;;;;
2022/04/09 02:16:00;;;;;;;12.7;5.1;;;;;;;4.1;100.0;100350;;;;
2022/04/09 02:17:00;;;;;;;12.7;5.1;;;;;;;4.1;100.0;100350;;;;
2022/04/09 02:18:00;;;;;;;12.7;5.1;;;;;;;4.1;100.0;100350;;;;
2022/04/09 02:19:00;;;;;;;12.7;5.1;;;;;;;4.0;100.0;100350;;;;
2022/04/09 02:20:00;;;;;;;12.7;5.1;;;;;;;4.0;100.0;100350;;;;
2022/04/09 02:21:00;;;;;;;12.7;5.1;;;;;;;4.0;100.0;100360;;;;
2022/04/09 02:22:00;;;;;;;12.7;5.1;;;;;;;4.0;100.0;100360;;;;
2022/04/09 02:23:00;;;;;;;12.7;5.1;;;;;;;4.0;100.0;100360;;;;
2022/04/09 02:24:00;;;;;;;12.7;5.1;;;;;;;4.0;100.0;100360;;;;
2022/04/09 02:25:00;;;;;;;12.7;5.1;;;;;;;4.0;100.0;100370;;;;
2022/04/09 02:26:00;;;;;;;12.7;5.1;;;;;;;4.0;100.0;100370;;;;
2022/04/09 02:27:00;;;;;;;12.7;5.1;;;;;;;4.1;100.0;100370;;;;
2022/04/09 02:28:00;;;;;;;12.7;5.1;;;;;;;4.1;100.0;100370;;;;
2022/04/09 02:29:00;;;;;;;12.7;5.1;;;;;;;4.1;100.0;100370;;;;
2022/04/09 02:30:01;;;;;;;12.7;5.1;;;;;;;4.1;100.0;100370;;;;
2022/04/09 02:31:00;;;;;;;12.7;5.1;;;;;;;4.1;100.0;100380;;;;
2022/04/09 02:32:02;;;;;;;12.7;5.1;;;;;;;4.1;100.0;100380;;;;
2022/04/09 02:33:00;;;;;;;11.1;5.1;;;;;;;4.0;100.0;100380;;;;
2022/04/09 02:34:01;;;;;;;11.1;5.1;;;;;;;4.0;100.0;100380;;;;
2022/04/09 02:35:03;;;;;;;11.1;5.1;;;;;;;4.1;100.0;100380;;;;
2022/04/09 02:36:00;;;;;;;11.1;5.1;;;;;;;4.1;100.0;100380;;;;
2022/04/09 02:37:01;;;;;;;11.1;5.1;;;;;;;4.0;100.0;100390;;;;
2022/04/09 02:38:00;;;;;;;11.1;5.1;;;;;;;4.0;100.0;100390;;;;
2022/04/09 02:39:00;;;;;;;11.1;5.1;;;;;;;4.0;100.0;100390;;;;
2022/04/09 02:40:01;;;;;;;11.1;5.1;;;;;;;4.0;100.0;100390;;;;
2022/04/09 02:41:00;;;;;;;11.1;5.1;;;;;;;4.0;100.0;100390;;;;
2022/04/09 02:42:00;;;;;;;11.1;5.1;;;;;;;4.0;100.0;100390;;;;
2022/04/09 02:43:00;;;;;;;11.1;5.1;;;;;;;4.0;100.0;100400;;;;
2022/04/09 02:44:00;;;;;;;11.1;5.1;;;;;;;4.0;100.0;100400;;;;
2022/04/09 02:45:00;;;;;;;11.1;5.1;;;;;;;4.0;100.0;100390;;;;
2022/04/09 02:46:00;;;;;;;11.1;5.1;;;;;;;4.0;100.0;100390;;;;
2022/04/09 02:47:00;;;;;;;11.1;5.1;;;;;;;4.0;100.0;100400;;;;
2022/04/09 02:48:00;;;;;;;11.1;5.1;;;;;;;4.0;100.0;100400;;;;
2022/04/09 02:49:00;;;;;;;11.1;5.1;;;;;;;4.0;100.0;100410;;;;
2022/04/09 02:50:00;;;;;;;11.1;5.1;;;;;;;4.0;100.0;100410;;;;
2022/04/09 02:51:00;;;;;;;11.1;5.1;;;;;;;4.1;100.0;100410;;;;
2022/04/09 02:52:00;;;;;;;11.1;5.1;;;;;;;4.1;100.0;100410;;;;
2022/04/09 02:53:00;;;;;;;11.5;5.1;;;;;;;4.1;100.0;100410;;;;
2022/04/09 02:54:00;;;;;;;11.5;5.1;;;;;;;4.1;100.0;100410;;;;
2022/04/09 02:55:00;;;;;;;11.5;5.1;;;;;;;4.2;100.0;100410;;;;
2022/04/09 02:56:00;;;;;;;11.5;5.1;;;;;;;4.2;100.0;100410;;;;
2022/04/09 02:57:00;;;;;;;11.5;5.1;;;;;;;4.2;100.0;100410;;;;
2022/04/09 02:58:01;;;;;;;11.5;5.1;;;;;;;4.2;100.0;100410;;;;
2022/04/09 02:59:00;;;;;;;11.5;5.1;;;;;;;4.2;100.0;100410;;;;
2022/04/09 03:00:01;;;;;;;11.5;5.1;;;;;;;4.2;100.0;100410;;;;
2022/04/09 03:01:00;;;;;;;11.5;5.1;;;;;;;4.3;100.0;100420;;;;
2022/04/09 03:02:00;;;;;;;11.5;5.1;;;;;;;4.3;100.0;100420;;;;
2022/04/09 03:03:00;;;;;;;11.5;5.1;;;;;;;4.3;100.0;100420;;;;
2022/04/09 03:04:00;;;;;;;11.5;5.1;;;;;;;4.3;100.0;100420;;;;
2022/04/09 03:05:00;;;;;;;11.5;5.1;;;;;;;4.4;100.0;100420;;;;
2022/04/09 03:06:00;;;;;;;11.5;5.1;;;;;;;4.4;100.0;100420;;;;
2022/04/09 03:07:00;;;;;;;11.5;5.1;;;;;;;4.3;100.0;100430;;;;
2022/04/09 03:08:00;;;;;;;11.5;5.1;;;;;;;4.3;100.0;100430;;;;
2022/04/09 03:09:00;;;;;;;11.5;5.1;;;;;;;4.3;100.0;100440;;;;
2022/04/09 03:10:00;;;;;;;11.5;5.1;;;;;;;4.3;100.0;100440;;;;
2022/04/09 03:11:00;;;;;;;11.5;5.1;;;;;;;4.3;100.0;100450;;;;
2022/04/09 03:12:00;;;;;;;11.5;5.1;;;;;;;4.3;100.0;100450;;;;
2022/04/09 03:13:00;;;;;;;12.3;4.5;;;;;;;4.4;100.0;100450;;;;
2022/04/09 03:14:00;;;;;;;12.3;4.5;;;;;;;4.4;100.0;100450;;;;
2022/04/09 03:15:00;;;;;;;12.3;4.5;;;;;;;4.4;100.0;100450;;;;
2022/04/09 03:16:00;;;;;;;12.3;4.5;;;;;;;4.4;100.0;100450;;;;
2022/04/09 03:17:00;;;;;;;12.3;4.5;;;;;;;4.4;100.0;100460;;;;
2022/04/09 03:18:00;;;;;;;12.3;4.5;;;;;;;4.4;100.0;100460;;;;
2022/04/09 03:19:00;;;;;;;12.3;4.5;;;;;;;4.5;100.0;100460;;;;
2022/04/09 03:20:00;;;;;;;12.3;4.5;;;;;;;4.5;100.0;100460;;;;
2022/04/09 03:21:00;;;;;;;12.3;4.5;;;;;;;4.5;100.0;100460;;;;
2022/04/09 03:22:00;;;;;;;12.3;4.5;;;;;;;4.5;100.0;100460;;;;
2022/04/09 03:23:00;;;;;;;12.3;4.5;;;;;;;4.4;100.0;100460;;;;
2022/04/09 03:24:00;;;;;;;12.3;4.5;;;;;;;4.4;100.0;100460;;;;
2022/04/09 03:25:00;;;;;;;12.3;4.5;;;;;;;4.4;100.0;100460;;;;
2022/04/09 03:26:00;;;;;;;12.3;4.5;;;;;;;4.4;100.0;100460;;;;
2022/04/09 03:27:00;;;;;;;12.3;4.5;;;;;;;4.3;100.0;100460;;;;
2022/04/09 03:28:00;;;;;;;12.3;4.5;;;;;;;4.3;100.0;100460;;;;
2022/04/09 03:29:00;;;;;;;12.3;4.5;;;;;;;4.3;100.0;100470;;;;
2022/04/09 03:30:00;;;;;;;12.3;4.5;;;;;;;4.3;100.0;100470;;;;
2022/04/09 03:31:00;;;;;;;12.3;4.5;;;;;;;4.2;100.0;100470;;;;
2022/04/09 03:32:00;;;;;;;12.3;4.5;;;;;;;4.2;100.0;100470;;;;
2022/04/09 03:33:00;;;;;;;10.1;4.6;;;;;;;4.2;100.0;100470;;;;
2022/04/09 03:34:00;;;;;;;10.1;4.6;;;;;;;4.2;100.0;100470;;;;
2022/04/09 03:35:00;;;;;;;10.1;4.6;;;;;;;4.2;100.0;100470;;;;
2022/04/09 03:36:00;;;;;;;10.1;4.6;;;;;;;4.2;100.0;100470;;;;
2022/04/09 03:37:00;;;;;;;10.1;4.6;;;;;;;4.2;100.0;100470;;;;
2022/04/09 03:38:00;;;;;;;10.1;4.6;;;;;;;4.2;100.0;100470;;;;
2022/04/09 03:39:00;;;;;;;10.1;4.6;;;;;;;4.2;100.0;100470;;;;
2022/04/09 03:40:01;;;;;;;10.1;4.6;;;;;;;4.2;100.0;100470;;;;
2022/04/09 03:41:00;;;;;;;10.1;4.6;;;;;;;4.2;100.0;100460;;;;
2022/04/09 03:42:10;;;;;;;10.1;4.6;;;;;;;4.2;100.0;100460;;;;
2022/04/09 03:43:00;;;;;;;10.1;4.6;;;;;;;4.1;100.0;100470;;;;
2022/04/09 03:44:00;;;;;;;10.1;4.6;;;;;;;4.1;100.0;100470;;;;
2022/04/09 03:45:00;;;;;;;10.1;4.6;;;;;;;4.1;100.0;100470;;;;
2022/04/09 03:46:00;;;;;;;10.1;4.6;;;;;;;4.1;100.0;100470;;;;
2022/04/09 03:47:00;;;;;;;10.1;4.6;;;;;;;4.0;100.0;100470;;;;
2022/04/09 03:48:00;;;;;;;10.1;4.6;;;;;;;4.0;100.0;100470;;;;
2022/04/09 03:49:00;;;;;;;10.1;4.6;;;;;;;4.1;100.0;100480;;;;
2022/04/09 03:50:01;;;;;;;10.1;4.6;;;;;;;4.1;100.0;100480;;;;
2022/04/09 03:51:00;;;;;;;10.1;4.6;;;;;;;4.0;100.0;100480;;;;
2022/04/09 03:52:00;;;;;;;10.1;4.6;;;;;;;4.0;100.0;100480;;;;
2022/04/09 03:53:00;;;;;;;7.6;4.2;;;;;;;4.0;100.0;100480;;;;
2022/04/09 03:54:00;;;;;;;7.6;4.2;;;;;;;4.0;100.0;100480;;;;
2022/04/09 03:55:00;;;;;;;7.6;4.2;;;;;;;4.0;100.0;100490;;;;
2022/04/09 03:56:00;;;;;;;7.6;4.2;;;;;;;4.0;100.0;100490;;;;
2022/04/09 03:57:00;;;;;;;7.6;4.2;;;;;;;4.0;100.0;100480;;;;
2022/04/09 03:58:00;;;;;;;7.6;4.2;;;;;;;4.0;100.0;100480;;;;
2022/04/09 03:59:00;;;;;;;7.6;4.2;;;;;;;4.0;100.0;100490;;;;
2022/04/09 04:00:00;;;;;;;7.6;4.2;;;;;;;4.0;100.0;100490;;;;
2022/04/09 04:01:00;;;;;;;7.6;4.2;;;;;;;3.9;100.0;100490;;;;
2022/04/09 04:02:00;;;;;;;7.6;4.2;;;;;;;3.9;100.0;100490;;;;
2022/04/09 04:03:00;;;;;;;7.6;4.2;;;;;;;4.0;100.0;100490;;;;
2022/04/09 04:04:00;;;;;;;7.6;4.2;;;;;;;4.0;100.0;100490;;;;
2022/04/09 04:05:03;;;;;;;7.6;4.2;;;;;;;3.9;100.0;100500;;;;
2022/04/09 04:06:01;;;;;;;7.6;4.2;;;;;;;3.9;100.0;100500;;;;
2022/04/09 04:07:00;;;;;;;7.6;4.2;;;;;;;3.8;100.0;100500;;;;
2022/04/09 04:08:00;;;;;;;7.6;4.2;;;;;;;3.8;100.0;100500;;;;
2022/04/09 04:09:00;;;;;;;7.6;4.2;;;;;;;3.8;100.0;100500;;;;
2022/04/09 04:10:02;;;;;;;7.6;4.2;;;;;;;3.8;100.0;100500;;;;
2022/04/09 04:11:01;;;;;;;7.6;4.2;;;;;;;3.7;100.0;100500;;;;
2022/04/09 04:12:00;;;;;;;7.6;4.2;;;;;;;3.7;100.0;100500;;;;
2022/04/09 04:13:00;;;;;;;13.9;5.0;;;;;;;3.8;100.0;100510;;;;
2022/04/09 04:14:00;;;;;;;13.9;5.0;;;;;;;3.8;100.0;100510;;;;
2022/04/09 04:15:00;;;;;;;13.9;5.0;;;;;;;3.8;100.0;100510;;;;
2022/04/09 04:16:01;;;;;;;13.9;5.0;;;;;;;3.8;100.0;100510;;;;
2022/04/09 04:17:00;;;;;;;13.9;5.0;;;;;;;3.7;100.0;100510;;;;
2022/04/09 04:18:00;;;;;;;13.9;5.0;;;;;;;3.7;100.0;100510;;;;
2022/04/09 04:19:00;;;;;;;13.9;5.0;;;;;;;3.7;100.0;100510;;;;
2022/04/09 04:20:00;;;;;;;13.9;5.0;;;;;;;3.7;100.0;100510;;;;
2022/04/09 04:21:00;;;;;;;13.9;5.0;;;;;;;3.7;100.0;100520;;;;
2022/04/09 04:22:00;;;;;;;13.9;5.0;;;;;;;3.7;100.0;100520;;;;
2022/04/09 04:23:00;;;;;;;13.9;5.0;;;;;;;3.7;100.0;100520;;;;
2022/04/09 04:24:00;;;;;;;13.9;5.0;;;;;;;3.7;100.0;100520;;;;
2022/04/09 04:25:00;;;;;;;13.9;5.0;;;;;;;3.6;100.0;100530;;;;
2022/04/09 04:26:00;;;;;;;13.9;5.0;;;;;;;3.6;100.0;100530;;;;
2022/04/09 04:27:00;;;;;;;13.9;5.0;;;;;;;3.7;100.0;100530;;;;
2022/04/09 04:28:00;;;;;;;13.9;5.0;;;;;;;3.7;100.0;100530;;;;
2022/04/09 04:29:00;;;;;;;13.9;5.0;;;;;;;3.6;100.0;100530;;;;
2022/04/09 04:30:01;;;;;;;13.9;5.0;;;;;;;3.6;100.0;100530;;;;
2022/04/09 04:31:00;;;;;;;13.9;5.0;;;;;;;3.5;100.0;100540;;;;
2022/04/09 04:32:00;;;;;;;13.9;5.0;;;;;;;3.5;100.0;100540;;;;
2022/04/09 04:33:00;;;;;;;7.7;3.9;;;;;;;3.5;100.0;100540;;;;
2022/04/09 04:34:00;;;;;;;7.7;3.9;;;;;;;3.5;100.0;100540;;;;
2022/04/09 04:35:00;;;;;;;7.7;3.9;;;;;;;3.5;100.0;100540;;;;
2022/04/09 04:36:00;;;;;;;7.7;3.9;;;;;;;3.5;100.0;100540;;;;
2022/04/09 04:37:00;;;;;;;7.7;3.9;;;;;;;3.4;100.0;100540;;;;
2022/04/09 04:38:00;;;;;;;7.7;3.9;;;;;;;3.4;100.0;100540;;;;
2022/04/09 04:39:00;;;;;;;7.7;3.9;;;;;;;3.4;100.0;100540;;;;
2022/04/09 04:40:00;;;;;;;7.7;3.9;;;;;;;3.4;100.0;100540;;;;
2022/04/09 04:41:01;;;;;;;7.7;3.9;;;;;;;3.4;100.0;100550;;;;
2022/04/09 04:42:00;;;;;;;7.7;3.9;;;;;;;3.4;100.0;100550;;;;
2022/04/09 04:43:00;;;;;;;7.7;3.9;;;;;;;3.4;100.0;100550;;;;
2022/04/09 04:44:00;;;;;;;7.7;3.9;;;;;;;3.4;100.0;100550;;;;
2022/04/09 04:45:00;;;;;;;7.7;3.9;;;;;;;3.4;100.0;100550;;;;
2022/04/09 04:46:00;;;;;;;7.7;3.9;;;;;;;3.4;100.0;100550;;;;
2022/04/09 04:47:00;;;;;;;7.7;3.9;;;;;;;3.4;100.0;100560;;;;
2022/04/09 04:48:00;;;;;;;7.7;3.9;;;;;;;3.4;100.0;100560;;;;
2022/04/09 04:49:00;;;;;;;7.7;3.9;;;;;;;3.3;100.0;100550;;;;
2022/04/09 04:50:02;;;;;;;7.7;3.9;;;;;;;3.3;100.0;100550;;;;
2022/04/09 04:51:00;;;;;;;7.7;3.9;;;;;;;3.3;100.0;100560;;;;
2022/04/09 04:52:01;;;;;;;7.7;3.9;;;;;;;3.3;100.0;100560;;;;
2022/04/09 04:53:00;;;;;;;11.0;4.8;;;;;;;3.4;100.0;100560;;;;
2022/04/09 04:54:02;;;;;;;11.0;4.8;;;;;;;3.4;100.0;100560;;;;
2022/04/09 04:55:00;;;;;;;11.0;4.8;;;;;;;3.3;100.0;100560;;;;
2022/04/09 04:56:02;;;;;;;11.0;4.8;;;;;;;3.3;100.0;100560;;;;
2022/04/09 04:57:00;;;;;;;11.0;4.8;;;;;;;3.3;100.0;100560;;;;
2022/04/09 04:58:00;;;;;;;11.0;4.8;;;;;;;3.3;100.0;100560;;;;
2022/04/09 04:59:00;;;;;;;11.0;4.8;;;;;;;3.3;100.0;100570;;;;
2022/04/09 05:00:04;;;;;;;11.0;4.8;;;;;;;3.3;100.0;100570;;;;
2022/04/09 05:01:00;;;;;;;11.0;4.8;;;;;;;3.3;100.0;100570;;;;
2022/04/09 05:02:00;;;;;;;11.0;4.8;;;;;;;3.3;100.0;100570;;;;
2022/04/09 05:03:00;;;;;;;11.0;4.8;;;;;;;3.2;100.0;100570;;;;
2022/04/09 05:04:00;;;;;;;11.0;4.8;;;;;;;3.2;100.0;100570;;;;
2022/04/09 05:05:01;;;;;;;11.0;4.8;;;;;;;3.2;100.0;100570;;;;
2022/04/09 05:06:00;;;;;;;11.0;4.8;;;;;;;3.2;100.0;100570;;;;
2022/04/09 05:07:00;;;;;;;11.0;4.8;;;;;;;3.2;100.0;100580;;;;
2022/04/09 05:08:00;;;;;;;11.0;4.8;;;;;;;3.2;100.0;100580;;;;
2022/04/09 05:09:00;;;;;;;11.0;4.8;;;;;;;3.2;100.0;100580;;;;
2022/04/09 05:10:03;;;;;;;11.0;4.8;;;;;;;3.2;100.0;100580;;;;
2022/04/09 05:11:00;;;;;;;11.0;4.8;;;;;;;3.3;100.0;100590;;;;
2022/04/09 05:12:00;;;;;;;11.0;4.8;;;;;;;3.3;100.0;100590;;;;
2022/04/09 05:13:00;;;;;;;12.3;5.3;;;;;;;3.3;100.0;100590;;;;
2022/04/09 05:14:03;;;;;;;12.3;5.3;;;;;;;3.3;100.0;100590;;;;
2022/04/09 05:15:00;;;;;;;12.3;5.3;;;;;;;3.3;100.0;100590;;;;
2022/04/09 05:16:00;;;;;;;12.3;5.3;;;;;;;3.3;100.0;100590;;;;
2022/04/09 05:17:00;;;;;;;12.3;5.3;;;;;;;3.3;100.0;100600;;;;
2022/04/09 05:18:01;;;;;;;12.3;5.3;;;;;;;3.3;100.0;100600;;;;
2022/04/09 05:19:00;;;;;;;12.3;5.3;;;;;;;3.3;100.0;100600;;;;
2022/04/09 05:20:02;;;;;;;12.3;5.3;;;;;;;3.3;100.0;100600;;;;
2022/04/09 05:21:00;;;;;;;12.3;5.3;;;;;;;3.2;100.0;100610;;;;
2022/04/09 05:22:00;;;;;;;12.3;5.3;;;;;;;3.2;100.0;100610;;;;
2022/04/09 05:23:01;;;;;;;12.3;5.3;;;;;;;3.2;100.0;100610;;;;
2022/04/09 05:24:00;;;;;;;12.3;5.3;;;;;;;3.2;100.0;100610;;;;
2022/04/09 05:25:00;;;;;;;12.3;5.3;;;;;;;3.2;100.0;100610;;;;
2022/04/09 05:26:00;;;;;;;12.3;5.3;;;;;;;3.2;100.0;100610;;;;
2022/04/09 05:27:00;;;;;;;12.3;5.3;;;;;;;3.2;100.0;100620;;;;
2022/04/09 05:28:02;;;;;;;12.3;5.3;;;;;;;3.2;100.0;100620;;;;
2022/04/09 05:29:00;;;;;;;12.3;5.3;;;;;;;3.3;100.0;100620;;;;
2022/04/09 05:30:00;;;;;;;12.3;5.3;;;;;;;3.3;100.0;100620;;;;
2022/04/09 05:31:00;;;;;;;12.3;5.3;;;;;;;3.3;100.0;100620;;;;
2022/04/09 05:32:00;;;;;;;9.4;5.0;;;;;;;3.3;100.0;100620;;;;
2022/04/09 05:33:00;;;;;;;9.4;5.0;;;;;;;3.3;100.0;100620;;;;
2022/04/09 05:34:00;;;;;;;9.4;5.0;;;;;;;3.3;100.0;100620;;;;
2022/04/09 05:35:00;;;;;;;9.4;5.0;;;;;;;3.3;100.0;100630;;;;
2022/04/09 05:36:02;;;;;;;9.4;5.0;;;;;;;3.3;100.0;100630;;;;
2022/04/09 05:37:00;;;;;;;9.4;5.0;;;;;;;3.4;100.0;100630;;;;
2022/04/09 05:38:00;;;;;;;9.4;5.0;;;;;;;3.4;100.0;100630;;;;
2022/04/09 05:39:00;;;;;;;9.4;5.0;;;;;;;3.3;100.0;100630;;;;
2022/04/09 05:40:00;;;;;;;9.4;5.0;;;;;;;3.3;100.0;100630;;;;
2022/04/09 05:41:00;;;;;;;9.4;5.0;;;;;;;3.4;100.0;100640;;;;
2022/04/09 05:42:00;;;;;;;9.4;5.0;;;;;;;3.4;100.0;100640;;;;
2022/04/09 05:43:00;;;;;;;9.4;5.0;;;;;;;3.4;100.0;100640;;;;
2022/04/09 05:44:00;;;;;;;9.4;5.0;;;;;;;3.4;100.0;100640;;;;
2022/04/09 05:45:00;;;;;;;9.4;5.0;;;;;;;3.5;100.0;100650;;;;
2022/04/09 05:46:00;;;;;;;9.4;5.0;;;;;;;3.5;100.0;100650;;;;
2022/04/09 05:47:00;;;;;;;9.4;5.0;;;;;;;3.5;100.0;100650;;;;
2022/04/09 05:48:00;;;;;;;9.4;5.0;;;;;;;3.5;100.0;100650;;;;
2022/04/09 05:49:00;;;;;;;9.4;5.0;;;;;;;3.6;100.0;100660;;;;
2022/04/09 05:50:00;;;;;;;9.4;5.0;;;;;;;3.6;100.0;100660;;;;
2022/04/09 05:51:00;;;;;;;9.4;5.0;;;;;;;3.7;100.0;100660;;;;
2022/04/09 05:52:00;;;;;;;8.9;4.6;;;;;;;3.7;100.0;100660;;;;
2022/04/09 05:53:01;;;;;;;8.9;4.6;;;;;;;3.7;100.0;100670;;;;
2022/04/09 05:54:00;;;;;;;8.9;4.6;;;;;;;3.7;100.0;100670;;;;
2022/04/09 05:55:03;;;;;;;8.9;4.6;;;;;;;3.7;100.0;100670;;;;
2022/04/09 05:56:00;;;;;;;8.9;4.6;;;;;;;3.7;100.0;100670;;;;
2022/04/09 05:57:00;;;;;;;8.9;4.6;;;;;;;3.7;100.0;100670;;;;
2022/04/09 05:58:00;;;;;;;8.9;4.6;;;;;;;3.7;100.0;100670;;;;
2022/04/09 05:59:10;;;;;;;8.9;4.6;;;;;;;3.8;100.0;100670;;;;
2022/04/09 06:00:00;;;;;;;8.9;4.6;;;;;;;3.8;100.0;100670;;;;
2022/04/09 06:01:01;;;;;;;8.9;4.6;;;;;;;3.7;100.0;100670;;;;
2022/04/09 06:02:00;;;;;;;8.9;4.6;;;;;;;3.7;100.0;100670;;;;
2022/04/09 06:03:01;;;;;;;8.9;4.6;;;;;;;3.7;100.0;100670;;;;
2022/04/09 06:04:01;;;;;;;8.9;4.6;;;;;;;3.7;100.0;100670;;;;
2022/04/09 06:05:00;;;;;;;8.9;4.6;;;;;;;3.8;100.0;100680;;;;
2022/04/09 06:06:00;;;;;;;8.9;4.6;;;;;;;3.8;100.0;100680;;;;
2022/04/09 06:07:02;;;;;;;8.9;4.6;;;;;;;3.7;100.0;100680;;;;
2022/04/09 06:08:00;;;;;;;8.9;4.6;;;;;;;3.7;100.0;100680;;;;
2022/04/09 06:09:00;;;;;;;8.9;4.6;;;;;;;3.8;100.0;100690;;;;
2022/04/09 06:10:00;;;;;;;8.9;4.6;;;;;;;3.8;100.0;100690;;;;
2022/04/09 06:11:00;;;;;;;8.9;4.6;;;;;;;3.8;100.0;100690;;;;
2022/04/09 06:12:01;;;;;;;9.0;4.3;;;;;;;3.8;100.0;100690;;;;
2022/04/09 06:13:00;;;;;;;9.0;4.3;;;;;;;3.9;100.0;100690;;;;
2022/04/09 06:14:00;;;;;;;9.0;4.3;;;;;;;3.9;100.0;100690;;;;
2022/04/09 06:15:01;;;;;;;9.0;4.3;;;;;;;3.9;100.0;100700;;;;
2022/04/09 06:16:05;;;;;;;9.0;4.3;;;;;;;3.9;100.0;100700;;;;
2022/04/09 06:17:00;;;;;;;9.0;4.3;;;;;;;4.0;100.0;100700;;;;
2022/04/09 06:18:07;;;;;;;9.0;4.3;;;;;;;4.0;100.0;100700;;;;
2022/04/09 06:19:00;;;;;;;9.0;4.3;;;;;;;4.0;100.0;100700;;;;
2022/04/09 06:20:00;;;;;;;9.0;4.3;;;;;;;4.0;100.0;100700;;;;
2022/04/09 06:21:00;;;;;;;9.0;4.3;;;;;;;4.0;100.0;100700;;;;
2022/04/09 06:22:01;;;;;;;9.0;4.3;;;;;;;4.0;100.0;100700;;;;
2022/04/09 06:23:00;;;;;;;9.0;4.3;;;;;;;4.0;100.0;100710;;;;
2022/04/09 06:24:00;;;;;;;9.0;4.3;;;;;;;4.0;100.0;100710;;;;
2022/04/09 06:25:00;;;;;;;9.0;4.3;;;;;;;4.1;100.0;100730;;;;